High Springs, Florida
Current Conditions -  °F | °C
As of 2:53 AM on Monday 24 Nov 2014 (Local Time) from KGNV Reporting Station
Overcast Overcast  
Wind Chill: 22°   Ceiling: 1800
Heat Index: 22°   Visibility: 10mi
Dew Point: 21°   Wind: 7mph
Humidity: 93%   Direction: 190°S
Pressure: 29.89"   Gusts: NA
Location:  29.82°N, 82.59°W
Report Text: KGNV 240753Z AUTO 19006KT 10SM OVC018 22/21 A2989 RMK AO2 SLP118 T02220211
Loading
Personal Weather Stations






























Interactive Weather Map New forecast layout! Learn more

10-Day Weather Forecast

Advertisements
Track Severe Weather on mobile